sensor_id;sensor_type;location;lat;lon;timestamp;P1;durP1;ratioP1;P2;durP2;ratioP2
44766;SDS011;30487;48.716;9.272;2022-11-25T00:00:52;10.02;;;5.00;;
44766;SDS011;30487;48.716;9.272;2022-11-25T00:03:18;12.85;;;5.18;;
44766;SDS011;30487;48.716;9.272;2022-11-25T00:05:44;11.02;;;4.93;;
44766;SDS011;30487;48.716;9.272;2022-11-25T00:08:09;10.82;;;4.90;;
44766;SDS011;30487;48.716;9.272;2022-11-25T00:10:35;11.60;;;4.75;;
44766;SDS011;30487;48.716;9.272;2022-11-25T00:13:00;9.35;;;4.47;;
44766;SDS011;30487;48.716;9.272;2022-11-25T00:15:26;13.57;;;5.45;;
44766;SDS011;30487;48.716;9.272;2022-11-25T00:17:52;10.68;;;4.85;;
44766;SDS011;30487;48.716;9.272;2022-11-25T00:20:17;14.77;;;5.05;;
44766;SDS011;30487;48.716;9.272;2022-11-25T00:22:45;10.13;;;4.90;;
44766;SDS011;30487;48.716;9.272;2022-11-25T00:25:10;12.15;;;5.13;;
44766;SDS011;30487;48.716;9.272;2022-11-25T00:27:36;10.30;;;4.85;;
44766;SDS011;30487;48.716;9.272;2022-11-25T00:30:02;13.85;;;5.13;;
44766;SDS011;30487;48.716;9.272;2022-11-25T00:32:28;14.68;;;4.43;;
44766;SDS011;30487;48.716;9.272;2022-11-25T00:34:54;8.52;;;4.05;;
44766;SDS011;30487;48.716;9.272;2022-11-25T00:37:20;12.52;;;4.47;;
44766;SDS011;30487;48.716;9.272;2022-11-25T00:39:45;14.48;;;4.25;;
44766;SDS011;30487;48.716;9.272;2022-11-25T00:42:11;13.30;;;4.18;;
44766;SDS011;30487;48.716;9.272;2022-11-25T00:44:55;11.10;;;4.75;;
44766;SDS011;30487;48.716;9.272;2022-11-25T00:47:20;10.75;;;4.25;;
44766;SDS011;30487;48.716;9.272;2022-11-25T00:49:47;12.73;;;4.80;;
44766;SDS011;30487;48.716;9.272;2022-11-25T00:52:15;11.15;;;4.50;;
44766;SDS011;30487;48.716;9.272;2022-11-25T00:54:43;15.40;;;4.70;;
44766;SDS011;30487;48.716;9.272;2022-11-25T00:57:09;11.45;;;4.75;;
44766;SDS011;30487;48.716;9.272;2022-11-25T00:59:35;10.90;;;4.20;;
44766;SDS011;30487;48.716;9.272;2022-11-25T01:02:01;10.35;;;3.88;;
44766;SDS011;30487;48.716;9.272;2022-11-25T01:04:26;10.13;;;4.97;;
44766;SDS011;30487;48.716;9.272;2022-11-25T01:06:52;11.25;;;4.38;;
44766;SDS011;30487;48.716;9.272;2022-11-25T01:09:20;14.60;;;5.47;;
44766;SDS011;30487;48.716;9.272;2022-11-25T01:11:48;16.42;;;4.80;;
44766;SDS011;30487;48.716;9.272;2022-11-25T01:14:14;11.63;;;4.88;;
44766;SDS011;30487;48.716;9.272;2022-11-25T01:16:40;12.85;;;4.55;;
44766;SDS011;30487;48.716;9.272;2022-11-25T01:19:06;10.82;;;4.72;;
44766;SDS011;30487;48.716;9.272;2022-11-25T01:21:32;13.95;;;4.32;;
44766;SDS011;30487;48.716;9.272;2022-11-25T01:23:59;13.77;;;4.80;;
44766;SDS011;30487;48.716;9.272;2022-11-25T01:26:26;12.18;;;4.55;;
44766;SDS011;30487;48.716;9.272;2022-11-25T01:28:54;10.32;;;4.97;;
44766;SDS011;30487;48.716;9.272;2022-11-25T01:31:25;15.27;;;5.72;;
44766;SDS011;30487;48.716;9.272;2022-11-25T01:33:53;12.63;;;5.80;;
44766;SDS011;30487;48.716;9.272;2022-11-25T01:36:20;15.23;;;5.80;;
44766;SDS011;30487;48.716;9.272;2022-11-25T01:38:49;16.77;;;6.20;;
44766;SDS011;30487;48.716;9.272;2022-11-25T01:41:16;13.23;;;5.93;;
44766;SDS011;30487;48.716;9.272;2022-11-25T01:43:41;11.80;;;5.40;;
44766;SDS011;30487;48.716;9.272;2022-11-25T01:46:20;17.17;;;5.80;;
44766;SDS011;30487;48.716;9.272;2022-11-25T01:48:53;12.82;;;6.10;;
44766;SDS011;30487;48.716;9.272;2022-11-25T01:51:55;15.15;;;6.30;;
44766;SDS011;30487;48.716;9.272;2022-11-25T01:54:25;12.93;;;5.82;;
44766;SDS011;30487;48.716;9.272;2022-11-25T01:56:55;13.75;;;5.43;;
44766;SDS011;30487;48.716;9.272;2022-11-25T01:59:25;13.75;;;5.60;;
44766;SDS011;30487;48.716;9.272;2022-11-25T02:01:51;9.63;;;4.88;;
44766;SDS011;30487;48.716;9.272;2022-11-25T02:04:17;14.82;;;5.32;;
44766;SDS011;30487;48.716;9.272;2022-11-25T02:06:48;11.23;;;5.22;;
44766;SDS011;30487;48.716;9.272;2022-11-25T02:09:18;11.27;;;5.05;;
44766;SDS011;30487;48.716;9.272;2022-11-25T02:11:45;13.75;;;4.80;;
44766;SDS011;30487;48.716;9.272;2022-11-25T02:14:11;13.02;;;5.00;;
44766;SDS011;30487;48.716;9.272;2022-11-25T02:16:38;10.02;;;4.47;;
44766;SDS011;30487;48.716;9.272;2022-11-25T02:19:05;8.85;;;4.82;;
44766;SDS011;30487;48.716;9.272;2022-11-25T02:21:42;11.98;;;4.65;;
44766;SDS011;30487;48.716;9.272;2022-11-25T02:24:16;12.95;;;5.13;;
44766;SDS011;30487;48.716;9.272;2022-11-25T02:29:13;12.00;;;4.22;;
44766;SDS011;30487;48.716;9.272;2022-11-25T02:31:39;9.25;;;4.63;;
44766;SDS011;30487;48.716;9.272;2022-11-25T02:34:05;10.77;;;4.95;;
44766;SDS011;30487;48.716;9.272;2022-11-25T02:36:30;15.05;;;5.45;;
44766;SDS011;30487;48.716;9.272;2022-11-25T02:38:59;11.15;;;4.55;;
44766;SDS011;30487;48.716;9.272;2022-11-25T02:41:32;10.48;;;4.30;;
44766;SDS011;30487;48.716;9.272;2022-11-25T02:44:01;9.52;;;4.20;;
44766;SDS011;30487;48.716;9.272;2022-11-25T02:46:27;11.75;;;4.80;;
44766;SDS011;30487;48.716;9.272;2022-11-25T02:48:55;10.30;;;4.75;;
44766;SDS011;30487;48.716;9.272;2022-11-25T02:51:22;7.82;;;4.47;;
44766;SDS011;30487;48.716;9.272;2022-11-25T02:53:49;9.18;;;4.40;;
44766;SDS011;30487;48.716;9.272;2022-11-25T02:56:16;9.45;;;4.30;;
44766;SDS011;30487;48.716;9.272;2022-11-25T02:58:43;8.02;;;4.32;;
44766;SDS011;30487;48.716;9.272;2022-11-25T03:01:08;12.45;;;4.88;;
44766;SDS011;30487;48.716;9.272;2022-11-25T03:03:34;11.00;;;4.68;;
44766;SDS011;30487;48.716;9.272;2022-11-25T03:06:01;10.30;;;4.68;;
44766;SDS011;30487;48.716;9.272;2022-11-25T03:08:26;8.68;;;4.55;;
44766;SDS011;30487;48.716;9.272;2022-11-25T03:10:52;12.40;;;4.75;;
44766;SDS011;30487;48.716;9.272;2022-11-25T03:13:18;10.63;;;4.60;;
44766;SDS011;30487;48.716;9.272;2022-11-25T03:15:43;10.90;;;4.88;;
44766;SDS011;30487;48.716;9.272;2022-11-25T03:18:09;12.38;;;4.68;;
44766;SDS011;30487;48.716;9.272;2022-11-25T03:20:35;10.77;;;4.47;;
44766;SDS011;30487;48.716;9.272;2022-11-25T03:23:01;9.73;;;5.20;;
44766;SDS011;30487;48.716;9.272;2022-11-25T03:25:28;8.30;;;4.47;;
44766;SDS011;30487;48.716;9.272;2022-11-25T03:27:54;9.75;;;4.70;;
44766;SDS011;30487;48.716;9.272;2022-11-25T03:30:22;11.57;;;5.45;;
44766;SDS011;30487;48.716;9.272;2022-11-25T03:32:49;9.27;;;5.07;;
44766;SDS011;30487;48.716;9.272;2022-11-25T03:35:15;10.13;;;4.55;;
44766;SDS011;30487;48.716;9.272;2022-11-25T03:37:41;13.45;;;4.85;;
44766;SDS011;30487;48.716;9.272;2022-11-25T03:40:07;10.75;;;5.22;;
44766;SDS011;30487;48.716;9.272;2022-11-25T03:42:34;10.05;;;4.55;;
44766;SDS011;30487;48.716;9.272;2022-11-25T03:45:00;11.43;;;5.07;;
44766;SDS011;30487;48.716;9.272;2022-11-25T03:47:26;13.10;;;4.72;;
44766;SDS011;30487;48.716;9.272;2022-11-25T03:49:51;11.68;;;5.22;;
44766;SDS011;30487;48.716;9.272;2022-11-25T03:52:17;12.75;;;4.72;;
44766;SDS011;30487;48.716;9.272;2022-11-25T03:54:43;9.68;;;4.10;;
44766;SDS011;30487;48.716;9.272;2022-11-25T03:57:09;7.88;;;4.60;;
44766;SDS011;30487;48.716;9.272;2022-11-25T03:59:34;8.88;;;3.90;;
44766;SDS011;30487;48.716;9.272;2022-11-25T04:02:00;9.82;;;4.57;;
44766;SDS011;30487;48.716;9.272;2022-11-25T04:04:26;9.60;;;4.55;;
44766;SDS011;30487;48.716;9.272;2022-11-25T04:06:52;11.10;;;4.95;;
44766;SDS011;30487;48.716;9.272;2022-11-25T04:09:17;10.35;;;4.65;;
44766;SDS011;30487;48.716;9.272;2022-11-25T04:11:43;10.35;;;4.13;;
44766;SDS011;30487;48.716;9.272;2022-11-25T04:16:53;9.73;;;4.35;;
44766;SDS011;30487;48.716;9.272;2022-11-25T04:19:19;12.15;;;4.38;;
44766;SDS011;30487;48.716;9.272;2022-11-25T04:21:44;12.35;;;4.07;;
44766;SDS011;30487;48.716;9.272;2022-11-25T04:24:10;11.15;;;4.50;;
44766;SDS011;30487;48.716;9.272;2022-11-25T04:26:35;8.80;;;4.57;;
44766;SDS011;30487;48.716;9.272;2022-11-25T04:29:01;12.23;;;4.95;;
44766;SDS011;30487;48.716;9.272;2022-11-25T04:31:27;9.90;;;4.80;;
44766;SDS011;30487;48.716;9.272;2022-11-25T04:33:52;9.88;;;4.55;;
44766;SDS011;30487;48.716;9.272;2022-11-25T04:36:18;10.57;;;4.60;;
44766;SDS011;30487;48.716;9.272;2022-11-25T04:38:44;9.23;;;4.32;;
44766;SDS011;30487;48.716;9.272;2022-11-25T04:41:09;11.35;;;4.68;;
44766;SDS011;30487;48.716;9.272;2022-11-25T04:43:35;8.55;;;4.43;;
44766;SDS011;30487;48.716;9.272;2022-11-25T04:46:01;9.35;;;4.10;;
44766;SDS011;30487;48.716;9.272;2022-11-25T04:48:27;11.27;;;4.70;;
44766;SDS011;30487;48.716;9.272;2022-11-25T04:50:53;8.93;;;4.28;;
44766;SDS011;30487;48.716;9.272;2022-11-25T04:53:19;9.65;;;4.15;;
44766;SDS011;30487;48.716;9.272;2022-11-25T04:55:44;9.43;;;3.95;;
44766;SDS011;30487;48.716;9.272;2022-11-25T04:58:10;11.18;;;4.47;;
44766;SDS011;30487;48.716;9.272;2022-11-25T05:00:36;16.00;;;4.63;;
44766;SDS011;30487;48.716;9.272;2022-11-25T05:03:02;8.95;;;4.00;;
44766;SDS011;30487;48.716;9.272;2022-11-25T05:05:27;12.10;;;4.70;;
44766;SDS011;30487;48.716;9.272;2022-11-25T05:07:53;10.77;;;4.35;;
44766;SDS011;30487;48.716;9.272;2022-11-25T05:10:19;10.98;;;4.57;;
44766;SDS011;30487;48.716;9.272;2022-11-25T05:12:44;14.32;;;4.80;;
44766;SDS011;30487;48.716;9.272;2022-11-25T05:15:10;12.38;;;4.32;;
44766;SDS011;30487;48.716;9.272;2022-11-25T05:17:35;11.73;;;4.47;;
44766;SDS011;30487;48.716;9.272;2022-11-25T05:20:02;13.43;;;4.30;;
44766;SDS011;30487;48.716;9.272;2022-11-25T05:22:29;8.82;;;3.97;;
44766;SDS011;30487;48.716;9.272;2022-11-25T05:24:56;11.05;;;4.13;;
44766;SDS011;30487;48.716;9.272;2022-11-25T05:27:22;7.63;;;3.95;;
44766;SDS011;30487;48.716;9.272;2022-11-25T05:29:49;8.27;;;4.13;;
44766;SDS011;30487;48.716;9.272;2022-11-25T05:32:15;11.05;;;4.63;;
44766;SDS011;30487;48.716;9.272;2022-11-25T05:34:41;9.35;;;4.28;;
44766;SDS011;30487;48.716;9.272;2022-11-25T05:37:07;9.10;;;4.22;;
44766;SDS011;30487;48.716;9.272;2022-11-25T05:39:35;11.63;;;4.43;;
44766;SDS011;30487;48.716;9.272;2022-11-25T05:42:04;9.63;;;4.20;;
44766;SDS011;30487;48.716;9.272;2022-11-25T05:44:47;9.75;;;4.32;;
44766;SDS011;30487;48.716;9.272;2022-11-25T05:47:16;9.75;;;4.20;;
44766;SDS011;30487;48.716;9.272;2022-11-25T05:49:41;8.90;;;4.03;;
44766;SDS011;30487;48.716;9.272;2022-11-25T05:52:07;11.02;;;4.60;;
44766;SDS011;30487;48.716;9.272;2022-11-25T05:54:35;11.65;;;4.65;;
44766;SDS011;30487;48.716;9.272;2022-11-25T05:57:01;11.18;;;4.22;;
44766;SDS011;30487;48.716;9.272;2022-11-25T05:59:27;12.73;;;4.63;;
44766;SDS011;30487;48.716;9.272;2022-11-25T06:01:52;9.43;;;4.57;;
44766;SDS011;30487;48.716;9.272;2022-11-25T06:04:18;10.32;;;4.13;;
44766;SDS011;30487;48.716;9.272;2022-11-25T06:06:44;9.18;;;4.25;;
44766;SDS011;30487;48.716;9.272;2022-11-25T06:09:09;12.30;;;4.53;;
44766;SDS011;30487;48.716;9.272;2022-11-25T06:11:35;10.45;;;4.53;;
44766;SDS011;30487;48.716;9.272;2022-11-25T06:14:01;10.45;;;4.32;;
44766;SDS011;30487;48.716;9.272;2022-11-25T06:16:26;8.95;;;4.00;;
44766;SDS011;30487;48.716;9.272;2022-11-25T06:18:52;8.73;;;4.00;;
44766;SDS011;30487;48.716;9.272;2022-11-25T06:21:18;8.70;;;4.03;;
44766;SDS011;30487;48.716;9.272;2022-11-25T06:23:44;9.57;;;4.35;;
44766;SDS011;30487;48.716;9.272;2022-11-25T06:28:43;10.30;;;4.40;;
44766;SDS011;30487;48.716;9.272;2022-11-25T06:31:11;8.85;;;4.30;;
44766;SDS011;30487;48.716;9.272;2022-11-25T06:33:38;8.68;;;4.25;;
44766;SDS011;30487;48.716;9.272;2022-11-25T06:36:05;11.48;;;4.38;;
44766;SDS011;30487;48.716;9.272;2022-11-25T06:38:32;10.50;;;4.10;;
44766;SDS011;30487;48.716;9.272;2022-11-25T06:41:02;9.77;;;4.20;;
44766;SDS011;30487;48.716;9.272;2022-11-25T06:43:29;9.57;;;4.28;;
44766;SDS011;30487;48.716;9.272;2022-11-25T06:46:03;11.15;;;4.10;;
44766;SDS011;30487;48.716;9.272;2022-11-25T06:48:31;11.55;;;4.18;;
44766;SDS011;30487;48.716;9.272;2022-11-25T06:51:01;11.57;;;4.15;;
44766;SDS011;30487;48.716;9.272;2022-11-25T06:53:28;9.75;;;4.05;;
44766;SDS011;30487;48.716;9.272;2022-11-25T06:56:02;8.65;;;4.30;;
44766;SDS011;30487;48.716;9.272;2022-11-25T06:58:46;8.45;;;4.18;;
44766;SDS011;30487;48.716;9.272;2022-11-25T07:01:19;11.73;;;4.47;;
44766;SDS011;30487;48.716;9.272;2022-11-25T07:03:47;10.60;;;4.53;;
44766;SDS011;30487;48.716;9.272;2022-11-25T07:06:14;11.35;;;4.68;;
44766;SDS011;30487;48.716;9.272;2022-11-25T07:08:42;10.55;;;4.85;;
44766;SDS011;30487;48.716;9.272;2022-11-25T07:11:13;14.55;;;4.82;;
44766;SDS011;30487;48.716;9.272;2022-11-25T07:13:45;11.38;;;4.78;;
44766;SDS011;30487;48.716;9.272;2022-11-25T07:16:12;11.18;;;4.70;;
44766;SDS011;30487;48.716;9.272;2022-11-25T07:18:38;11.73;;;4.50;;
44766;SDS011;30487;48.716;9.272;2022-11-25T07:21:06;10.43;;;4.57;;
44766;SDS011;30487;48.716;9.272;2022-11-25T07:23:42;13.88;;;5.00;;
44766;SDS011;30487;48.716;9.272;2022-11-25T07:28:35;13.13;;;4.80;;
44766;SDS011;30487;48.716;9.272;2022-11-25T07:31:10;10.05;;;4.53;;
44766;SDS011;30487;48.716;9.272;2022-11-25T07:33:43;11.45;;;4.95;;
44766;SDS011;30487;48.716;9.272;2022-11-25T07:36:10;14.40;;;5.03;;
44766;SDS011;30487;48.716;9.272;2022-11-25T07:38:37;11.80;;;4.43;;
44766;SDS011;30487;48.716;9.272;2022-11-25T07:41:07;12.25;;;6.03;;
44766;SDS011;30487;48.716;9.272;2022-11-25T07:43:34;11.93;;;5.38;;
44766;SDS011;30487;48.716;9.272;2022-11-25T07:46:10;12.60;;;5.30;;
44766;SDS011;30487;48.716;9.272;2022-11-25T07:48:38;13.52;;;5.05;;
44766;SDS011;30487;48.716;9.272;2022-11-25T07:51:05;10.85;;;5.13;;
44766;SDS011;30487;48.716;9.272;2022-11-25T07:53:38;11.73;;;5.25;;
44766;SDS011;30487;48.716;9.272;2022-11-25T07:56:04;11.00;;;4.97;;
44766;SDS011;30487;48.716;9.272;2022-11-25T07:58:30;12.60;;;5.07;;
44766;SDS011;30487;48.716;9.272;2022-11-25T08:00:55;14.90;;;4.97;;
44766;SDS011;30487;48.716;9.272;2022-11-25T08:03:21;14.02;;;4.55;;
44766;SDS011;30487;48.716;9.272;2022-11-25T08:05:47;14.68;;;5.50;;
44766;SDS011;30487;48.716;9.272;2022-11-25T08:08:12;11.15;;;4.50;;
44766;SDS011;30487;48.716;9.272;2022-11-25T08:10:38;11.68;;;5.15;;
44766;SDS011;30487;48.716;9.272;2022-11-25T08:13:05;17.42;;;6.05;;
44766;SDS011;30487;48.716;9.272;2022-11-25T08:15:31;15.95;;;5.57;;
44766;SDS011;30487;48.716;9.272;2022-11-25T08:17:56;10.60;;;5.10;;
44766;SDS011;30487;48.716;9.272;2022-11-25T08:20:22;10.95;;;4.82;;
44766;SDS011;30487;48.716;9.272;2022-11-25T08:22:49;14.30;;;5.00;;
44766;SDS011;30487;48.716;9.272;2022-11-25T08:25:15;15.15;;;5.72;;
44766;SDS011;30487;48.716;9.272;2022-11-25T08:27:41;11.88;;;4.93;;
44766;SDS011;30487;48.716;9.272;2022-11-25T08:30:06;12.15;;;5.00;;
44766;SDS011;30487;48.716;9.272;2022-11-25T08:32:36;12.77;;;5.28;;
44766;SDS011;30487;48.716;9.272;2022-11-25T08:35:03;13.95;;;5.53;;
44766;SDS011;30487;48.716;9.272;2022-11-25T08:37:29;12.80;;;4.85;;
44766;SDS011;30487;48.716;9.272;2022-11-25T08:39:55;10.60;;;4.80;;
44766;SDS011;30487;48.716;9.272;2022-11-25T08:42:21;11.77;;;4.95;;
44766;SDS011;30487;48.716;9.272;2022-11-25T08:44:56;14.00;;;5.40;;
44766;SDS011;30487;48.716;9.272;2022-11-25T08:47:21;13.35;;;5.25;;
44766;SDS011;30487;48.716;9.272;2022-11-25T08:49:51;9.65;;;4.88;;
44766;SDS011;30487;48.716;9.272;2022-11-25T08:52:18;13.45;;;4.85;;
44766;SDS011;30487;48.716;9.272;2022-11-25T08:54:47;15.52;;;6.00;;
44766;SDS011;30487;48.716;9.272;2022-11-25T08:57:13;14.75;;;6.03;;
44766;SDS011;30487;48.716;9.272;2022-11-25T08:59:39;27.58;;;11.07;;
44766;SDS011;30487;48.716;9.272;2022-11-25T09:02:05;20.08;;;9.20;;
44766;SDS011;30487;48.716;9.272;2022-11-25T09:04:32;18.10;;;7.60;;
44766;SDS011;30487;48.716;9.272;2022-11-25T09:06:58;13.88;;;5.90;;
44766;SDS011;30487;48.716;9.272;2022-11-25T09:09:24;13.43;;;5.60;;
44766;SDS011;30487;48.716;9.272;2022-11-25T09:11:50;12.32;;;5.40;;
44766;SDS011;30487;48.716;9.272;2022-11-25T09:14:16;9.43;;;4.35;;
44766;SDS011;30487;48.716;9.272;2022-11-25T09:16:41;13.25;;;4.55;;
44766;SDS011;30487;48.716;9.272;2022-11-25T09:19:07;10.13;;;4.43;;
44766;SDS011;30487;48.716;9.272;2022-11-25T09:21:32;8.30;;;4.50;;
44766;SDS011;30487;48.716;9.272;2022-11-25T09:23:58;9.23;;;4.68;;
44766;SDS011;30487;48.716;9.272;2022-11-25T09:26:27;9.25;;;5.03;;
44766;SDS011;30487;48.716;9.272;2022-11-25T09:28:55;11.50;;;4.70;;
44766;SDS011;30487;48.716;9.272;2022-11-25T09:31:22;9.38;;;4.50;;
44766;SDS011;30487;48.716;9.272;2022-11-25T09:33:48;12.07;;;4.80;;
44766;SDS011;30487;48.716;9.272;2022-11-25T09:36:15;7.97;;;4.03;;
44766;SDS011;30487;48.716;9.272;2022-11-25T09:38:42;8.82;;;4.07;;
44766;SDS011;30487;48.716;9.272;2022-11-25T09:41:17;7.90;;;3.78;;
44766;SDS011;30487;48.716;9.272;2022-11-25T09:55:29;9.63;;;4.10;;
44766;SDS011;30487;48.716;9.272;2022-11-25T10:00:36;12.27;;;4.00;;
44766;SDS011;30487;48.716;9.272;2022-11-25T10:03:25;6.65;;;3.60;;
44766;SDS011;30487;48.716;9.272;2022-11-25T10:06:19;10.88;;;4.72;;
44766;SDS011;30487;48.716;9.272;2022-11-25T10:08:57;10.32;;;5.28;;
44766;SDS011;30487;48.716;9.272;2022-11-25T10:14:27;9.13;;;4.70;;
44766;SDS011;30487;48.716;9.272;2022-11-25T10:22:12;10.88;;;4.55;;
44766;SDS011;30487;48.716;9.272;2022-11-25T10:24:48;10.35;;;4.90;;
44766;SDS011;30487;48.716;9.272;2022-11-25T10:33:43;10.18;;;4.35;;
44766;SDS011;30487;48.716;9.272;2022-11-25T10:36:14;11.40;;;4.75;;
44766;SDS011;30487;48.716;9.272;2022-11-25T10:44:32;11.15;;;4.97;;
44766;SDS011;30487;48.716;9.272;2022-11-25T10:52:26;9.18;;;4.70;;
44766;SDS011;30487;48.716;9.272;2022-11-25T10:54:57;8.70;;;4.90;;
44766;SDS011;30487;48.716;9.272;2022-11-25T10:57:35;9.93;;;3.95;;
44766;SDS011;30487;48.716;9.272;2022-11-25T11:00:00;9.80;;;4.38;;
44766;SDS011;30487;48.716;9.272;2022-11-25T11:05:15;9.63;;;4.05;;
44766;SDS011;30487;48.716;9.272;2022-11-25T11:07:46;11.65;;;4.03;;
44766;SDS011;30487;48.716;9.272;2022-11-25T11:10:13;7.00;;;3.97;;
44766;SDS011;30487;48.716;9.272;2022-11-25T11:15:50;9.65;;;3.97;;
44766;SDS011;30487;48.716;9.272;2022-11-25T11:21:04;7.85;;;4.05;;
44766;SDS011;30487;48.716;9.272;2022-11-25T11:23:45;12.05;;;4.35;;
44766;SDS011;30487;48.716;9.272;2022-11-25T11:26:20;8.35;;;3.85;;
44766;SDS011;30487;48.716;9.272;2022-11-25T11:29:20;10.27;;;4.43;;
44766;SDS011;30487;48.716;9.272;2022-11-25T11:31:46;9.90;;;4.57;;
44766;SDS011;30487;48.716;9.272;2022-11-25T11:56:54;7.93;;;2.10;;
44766;SDS011;30487;48.716;9.272;2022-11-25T12:10:19;4.53;;;1.70;;
44766;SDS011;30487;48.716;9.272;2022-11-25T12:13:18;6.50;;;2.10;;
44766;SDS011;30487;48.716;9.272;2022-11-25T12:15:54;8.30;;;2.55;;
44766;SDS011;30487;48.716;9.272;2022-11-25T12:23:56;9.93;;;2.88;;
44766;SDS011;30487;48.716;9.272;2022-11-25T12:26:26;8.55;;;3.20;;
44766;SDS011;30487;48.716;9.272;2022-11-25T12:29:00;7.95;;;3.47;;
44766;SDS011;30487;48.716;9.272;2022-11-25T12:31:51;11.77;;;3.05;;
44766;SDS011;30487;48.716;9.272;2022-11-25T12:34:35;8.07;;;3.30;;
44766;SDS011;30487;48.716;9.272;2022-11-25T12:40:17;8.45;;;3.30;;
44766;SDS011;30487;48.716;9.272;2022-11-25T12:42:47;8.57;;;3.15;;
44766;SDS011;30487;48.716;9.272;2022-11-25T12:47:45;8.75;;;2.95;;
44766;SDS011;30487;48.716;9.272;2022-11-25T12:50:15;7.57;;;3.20;;
44766;SDS011;30487;48.716;9.272;2022-11-25T12:52:58;9.98;;;2.88;;
44766;SDS011;30487;48.716;9.272;2022-11-25T12:55:36;12.82;;;3.00;;
44766;SDS011;30487;48.716;9.272;2022-11-25T13:06:18;10.02;;;2.97;;
44766;SDS011;30487;48.716;9.272;2022-11-25T13:17:38;9.32;;;3.67;;
44766;SDS011;30487;48.716;9.272;2022-11-25T13:25:45;9.95;;;3.67;;
44766;SDS011;30487;48.716;9.272;2022-11-25T13:28:31;12.38;;;3.78;;
44766;SDS011;30487;48.716;9.272;2022-11-25T13:36:16;9.30;;;2.88;;
44766;SDS011;30487;48.716;9.272;2022-11-25T13:49:20;11.82;;;4.53;;
44766;SDS011;30487;48.716;9.272;2022-11-25T13:54:58;10.60;;;3.67;;
44766;SDS011;30487;48.716;9.272;2022-11-25T13:57:27;14.13;;;4.28;;
44766;SDS011;30487;48.716;9.272;2022-11-25T13:59:56;17.50;;;5.35;;
44766;SDS011;30487;48.716;9.272;2022-11-25T14:22:17;10.05;;;3.03;;
44766;SDS011;30487;48.716;9.272;2022-11-25T14:25:13;7.05;;;2.10;;
44766;SDS011;30487;48.716;9.272;2022-11-25T14:27:47;5.47;;;1.63;;
44766;SDS011;30487;48.716;9.272;2022-11-25T14:30:16;4.47;;;1.67;;
44766;SDS011;30487;48.716;9.272;2022-11-25T14:32:44;4.55;;;1.75;;
44766;SDS011;30487;48.716;9.272;2022-11-25T14:38:14;4.80;;;1.33;;
44766;SDS011;30487;48.716;9.272;2022-11-25T14:40:45;7.63;;;1.50;;
44766;SDS011;30487;48.716;9.272;2022-11-25T14:43:21;6.30;;;1.45;;
44766;SDS011;30487;48.716;9.272;2022-11-25T14:46:08;5.75;;;1.60;;
44766;SDS011;30487;48.716;9.272;2022-11-25T14:48:39;10.27;;;1.40;;
44766;SDS011;30487;48.716;9.272;2022-11-25T14:51:07;7.32;;;1.50;;
44766;SDS011;30487;48.716;9.272;2022-11-25T14:53:38;8.48;;;1.35;;
44766;SDS011;30487;48.716;9.272;2022-11-25T14:56:04;4.90;;;1.63;;
44766;SDS011;30487;48.716;9.272;2022-11-25T14:58:30;7.07;;;1.55;;
44766;SDS011;30487;48.716;9.272;2022-11-25T15:03:21;5.97;;;1.55;;
44766;SDS011;30487;48.716;9.272;2022-11-25T15:05:52;7.72;;;1.63;;
44766;SDS011;30487;48.716;9.272;2022-11-25T15:08:24;6.30;;;1.45;;
44766;SDS011;30487;48.716;9.272;2022-11-25T15:10:54;8.55;;;1.75;;
44766;SDS011;30487;48.716;9.272;2022-11-25T15:13:30;10.20;;;1.75;;
44766;SDS011;30487;48.716;9.272;2022-11-25T15:16:09;10.35;;;1.83;;
44766;SDS011;30487;48.716;9.272;2022-11-25T15:18:41;8.27;;;1.40;;
44766;SDS011;30487;48.716;9.272;2022-11-25T15:21:13;5.88;;;1.60;;
44766;SDS011;30487;48.716;9.272;2022-11-25T15:23:40;8.68;;;1.77;;
44766;SDS011;30487;48.716;9.272;2022-11-25T15:26:16;7.80;;;1.80;;
44766;SDS011;30487;48.716;9.272;2022-11-25T15:28:46;9.82;;;1.50;;
44766;SDS011;30487;48.716;9.272;2022-11-25T15:31:24;6.00;;;1.42;;
44766;SDS011;30487;48.716;9.272;2022-11-25T15:36:22;5.90;;;1.42;;
44766;SDS011;30487;48.716;9.272;2022-11-25T15:38:48;7.82;;;1.60;;
44766;SDS011;30487;48.716;9.272;2022-11-25T15:43:44;6.43;;;1.30;;
44766;SDS011;30487;48.716;9.272;2022-11-25T15:46:12;5.95;;;1.23;;
44766;SDS011;30487;48.716;9.272;2022-11-25T15:48:42;5.13;;;1.38;;
44766;SDS011;30487;48.716;9.272;2022-11-25T15:53:52;4.75;;;1.27;;
44766;SDS011;30487;48.716;9.272;2022-11-25T15:56:20;9.82;;;1.50;;
44766;SDS011;30487;48.716;9.272;2022-11-25T15:58:49;10.80;;;1.30;;
44766;SDS011;30487;48.716;9.272;2022-11-25T16:03:41;8.13;;;1.25;;
44766;SDS011;30487;48.716;9.272;2022-11-25T16:09:00;4.80;;;1.40;;
44766;SDS011;30487;48.716;9.272;2022-11-25T16:11:28;7.65;;;1.85;;
44766;SDS011;30487;48.716;9.272;2022-11-25T16:17:19;8.90;;;1.60;;
44766;SDS011;30487;48.716;9.272;2022-11-25T16:19:44;7.97;;;1.50;;
44766;SDS011;30487;48.716;9.272;2022-11-25T16:22:15;9.80;;;1.80;;
44766;SDS011;30487;48.716;9.272;2022-11-25T16:24:47;8.18;;;2.10;;
44766;SDS011;30487;48.716;9.272;2022-11-25T16:27:18;10.95;;;2.97;;
44766;SDS011;30487;48.716;9.272;2022-11-25T16:32:19;12.00;;;2.60;;
44766;SDS011;30487;48.716;9.272;2022-11-25T16:34:46;10.73;;;2.20;;
44766;SDS011;30487;48.716;9.272;2022-11-25T16:37:12;10.80;;;2.40;;
44766;SDS011;30487;48.716;9.272;2022-11-25T16:39:37;11.45;;;2.08;;
44766;SDS011;30487;48.716;9.272;2022-11-25T16:42:03;6.65;;;2.10;;
44766;SDS011;30487;48.716;9.272;2022-11-25T16:44:30;6.85;;;2.20;;
44766;SDS011;30487;48.716;9.272;2022-11-25T16:46:58;12.35;;;2.10;;
44766;SDS011;30487;48.716;9.272;2022-11-25T16:49:24;9.98;;;2.03;;
44766;SDS011;30487;48.716;9.272;2022-11-25T16:51:51;9.95;;;2.13;;
44766;SDS011;30487;48.716;9.272;2022-11-25T16:54:20;10.93;;;1.88;;
44766;SDS011;30487;48.716;9.272;2022-11-25T16:56:52;11.77;;;2.00;;
44766;SDS011;30487;48.716;9.272;2022-11-25T17:01:55;7.68;;;2.00;;
44766;SDS011;30487;48.716;9.272;2022-11-25T17:04:22;11.70;;;2.00;;
44766;SDS011;30487;48.716;9.272;2022-11-25T17:06:48;10.32;;;2.47;;
44766;SDS011;30487;48.716;9.272;2022-11-25T17:09:14;15.27;;;2.60;;
44766;SDS011;30487;48.716;9.272;2022-11-25T17:11:40;10.93;;;2.92;;
44766;SDS011;30487;48.716;9.272;2022-11-25T17:14:31;13.38;;;2.97;;
44766;SDS011;30487;48.716;9.272;2022-11-25T17:17:00;10.52;;;2.75;;
44766;SDS011;30487;48.716;9.272;2022-11-25T17:19:26;8.70;;;2.47;;
44766;SDS011;30487;48.716;9.272;2022-11-25T17:21:52;10.20;;;2.58;;
44766;SDS011;30487;48.716;9.272;2022-11-25T17:24:22;10.73;;;2.60;;
44766;SDS011;30487;48.716;9.272;2022-11-25T17:26:53;15.38;;;2.28;;
44766;SDS011;30487;48.716;9.272;2022-11-25T17:29:34;13.18;;;2.28;;
44766;SDS011;30487;48.716;9.272;2022-11-25T17:32:03;12.23;;;2.60;;
44766;SDS011;30487;48.716;9.272;2022-11-25T17:34:29;7.63;;;2.20;;
44766;SDS011;30487;48.716;9.272;2022-11-25T17:36:55;11.23;;;2.28;;
44766;SDS011;30487;48.716;9.272;2022-11-25T17:39:21;7.53;;;2.10;;
44766;SDS011;30487;48.716;9.272;2022-11-25T17:41:47;10.18;;;2.38;;
44766;SDS011;30487;48.716;9.272;2022-11-25T17:44:27;6.75;;;2.20;;
44766;SDS011;30487;48.716;9.272;2022-11-25T17:46:54;12.80;;;2.60;;
44766;SDS011;30487;48.716;9.272;2022-11-25T17:49:21;11.73;;;2.22;;
44766;SDS011;30487;48.716;9.272;2022-11-25T17:51:47;8.40;;;2.13;;
44766;SDS011;30487;48.716;9.272;2022-11-25T17:54:12;9.80;;;2.35;;
44766;SDS011;30487;48.716;9.272;2022-11-25T17:56:39;11.63;;;2.72;;
44766;SDS011;30487;48.716;9.272;2022-11-25T17:59:11;10.25;;;2.70;;
44766;SDS011;30487;48.716;9.272;2022-11-25T18:01:44;11.43;;;2.40;;